createdAt,value
2022-10-07T00:01:07.756Z,6.20
2022-10-07T00:03:36.287Z,6.22
2022-10-07T00:06:06.408Z,6.06
2022-10-07T00:08:36.279Z,5.77
2022-10-07T00:11:11.664Z,6.17
2022-10-07T00:13:40.863Z,6.17
2022-10-07T00:16:12.205Z,6.06
2022-10-07T00:18:41.248Z,6.14
2022-10-07T00:21:11.457Z,6.04
2022-10-07T00:23:40.052Z,6.17
2022-10-07T00:26:10.843Z,6.11
2022-10-07T00:28:39.115Z,6.09
2022-10-07T00:31:09.259Z,6.09
2022-10-07T00:33:38.867Z,6.08
2022-10-07T00:36:08.845Z,6.08
2022-10-07T00:38:36.808Z,5.94
2022-10-07T00:41:05.042Z,5.90
2022-10-07T00:43:34.503Z,5.94
2022-10-07T00:46:08.957Z,6.02
2022-10-07T00:48:39.227Z,5.93
2022-10-07T00:51:09.317Z,5.83
2022-10-07T00:53:39.964Z,5.91
2022-10-07T00:56:08.957Z,5.99
2022-10-07T00:58:40.551Z,5.62
2022-10-07T01:01:09.018Z,6.05
2022-10-07T01:03:37.872Z,5.88
2022-10-07T01:06:06.676Z,6.09
2022-10-07T01:08:34.925Z,6.15
2022-10-07T01:11:14.856Z,6.01
2022-10-07T01:13:55.655Z,5.83
2022-10-07T01:16:33.853Z,5.90
2022-10-07T01:19:14.528Z,5.47
2022-10-07T01:21:58.043Z,5.54
2022-10-07T01:24:40.811Z,5.76
2022-10-07T01:27:13.522Z,5.73
2022-10-07T01:29:45.444Z,4.89
2022-10-07T01:32:20.139Z,5.51
2022-10-07T01:34:49.810Z,5.64
2022-10-07T01:37:20.667Z,5.30
2022-10-07T01:39:51.979Z,5.52
2022-10-07T01:42:22.449Z,5.51
2022-10-07T01:44:58.620Z,5.46
2022-10-07T01:47:26.766Z,5.40
2022-10-07T01:49:54.771Z,5.11
2022-10-07T01:52:43.054Z,5.32
2022-10-07T01:55:44.242Z,5.36
2022-10-07T01:58:30.017Z,5.28
2022-10-07T02:01:08.865Z,5.32
2022-10-07T02:03:55.655Z,5.37
2022-10-07T02:06:40.101Z,5.18
2022-10-07T02:09:17.145Z,5.39
2022-10-07T02:11:51.382Z,5.32
2022-10-07T02:14:25.204Z,4.99
2022-10-07T02:16:57.912Z,5.30
2022-10-07T02:19:30.881Z,5.30
2022-10-07T02:22:02.130Z,5.25
2022-10-07T02:24:34.184Z,4.98
2022-10-07T02:27:07.589Z,4.37
2022-10-07T02:29:40.687Z,5.10
2022-10-07T02:32:13.322Z,5.16
2022-10-07T02:34:46.066Z,5.19
2022-10-07T02:37:20.399Z,5.18
2022-10-07T02:39:49.257Z,5.14
2022-10-07T02:42:25.937Z,5.10
2022-10-07T02:45:02.111Z,5.08
2022-10-07T02:47:35.135Z,4.84
2022-10-07T02:50:10.859Z,5.11
2022-10-07T02:52:41.567Z,4.99
2022-10-07T02:55:14.582Z,4.84
2022-10-07T02:57:47.855Z,4.82
2022-10-07T03:00:20.002Z,4.23
2022-10-07T03:02:57.355Z,4.73
2022-10-07T03:05:35.012Z,4.95
2022-10-07T03:08:08.980Z,4.91
2022-10-07T03:10:38.286Z,4.86
2022-10-07T03:13:08.190Z,4.92
2022-10-07T03:15:42.647Z,4.47
2022-10-07T03:18:28.584Z,4.60
2022-10-07T03:21:17.067Z,4.60
2022-10-07T03:23:46.996Z,4.70
2022-10-07T03:26:14.838Z,4.78
2022-10-07T03:28:43.069Z,4.71
2022-10-07T03:31:15.361Z,4.47
2022-10-07T03:33:49.708Z,4.91
2022-10-07T03:36:19.276Z,4.80
2022-10-07T03:38:48.569Z,4.82
2022-10-07T03:41:16.459Z,4.82
2022-10-07T03:43:45.468Z,4.75
2022-10-07T03:46:19.676Z,4.38
2022-10-07T03:48:48.364Z,4.61
2022-10-07T03:51:16.152Z,4.62
2022-10-07T03:53:43.953Z,4.67
2022-10-07T03:56:12.794Z,4.43
2022-10-07T03:58:43.109Z,4.58
2022-10-07T04:01:15.089Z,4.57
2022-10-07T04:03:49.902Z,3.90
2022-10-07T04:06:19.159Z,4.45
2022-10-07T04:08:52.044Z,4.68
2022-10-07T04:11:20.217Z,4.68
2022-10-07T04:13:48.278Z,4.66
2022-10-07T04:16:19.901Z,4.64
2022-10-07T04:18:50.032Z,4.58
2022-10-07T04:21:18.103Z,4.57
2022-10-07T04:23:45.962Z,4.50
2022-10-07T04:26:14.352Z,4.47
2022-10-07T04:28:46.280Z,4.65
2022-10-07T04:31:19.170Z,4.68
2022-10-07T04:33:52.689Z,4.64
2022-10-07T04:36:27.217Z,4.65
2022-10-07T04:39:03.644Z,4.55
2022-10-07T04:41:36.041Z,4.44
2022-10-07T04:44:07.013Z,4.30
2022-10-07T04:46:40.896Z,4.64
2022-10-07T04:49:14.320Z,4.62
2022-10-07T04:51:42.432Z,4.57
2022-10-07T04:54:10.572Z,4.39
2022-10-07T04:56:45.628Z,4.42
2022-10-07T04:59:14.744Z,4.47
2022-10-07T05:01:43.873Z,4.52
2022-10-07T05:04:11.774Z,4.61
2022-10-07T05:06:41.173Z,4.56
2022-10-07T05:09:12.059Z,4.55
2022-10-07T05:11:43.790Z,4.44
2022-10-07T05:14:21.329Z,4.35
2022-10-07T05:16:50.329Z,4.38
2022-10-07T05:19:19.123Z,4.34
2022-10-07T05:21:48.870Z,4.11
2022-10-07T05:24:16.721Z,4.43
2022-10-07T05:26:44.733Z,4.39
2022-10-07T05:29:13.292Z,4.45
2022-10-07T05:31:48.659Z,4.44
2022-10-07T05:34:20.210Z,4.38
2022-10-07T05:36:49.732Z,4.39
2022-10-07T05:39:17.809Z,4.15
2022-10-07T05:41:52.300Z,4.47
2022-10-07T05:44:25.903Z,4.48
2022-10-07T05:46:56.449Z,4.27
2022-10-07T05:49:24.994Z,4.58
2022-10-07T05:51:54.215Z,4.58
2022-10-07T05:54:22.439Z,4.63
2022-10-07T05:56:50.425Z,4.56
2022-10-07T05:59:20.590Z,4.51
2022-10-07T06:01:49.315Z,4.63
2022-10-07T06:04:21.460Z,4.79
2022-10-07T06:06:54.674Z,4.80
2022-10-07T06:09:40.431Z,5.00
2022-10-07T06:12:31.748Z,5.01
2022-10-07T06:15:02.064Z,5.11
2022-10-07T06:17:30.470Z,5.40
2022-10-07T06:20:01.220Z,5.68
2022-10-07T06:22:30.534Z,5.55
2022-10-07T06:25:02.047Z,5.93
2022-10-07T06:27:31.574Z,5.94
2022-10-07T06:30:00.105Z,6.01
2022-10-07T06:32:30.410Z,5.76
2022-10-07T06:34:58.184Z,6.34
2022-10-07T06:37:26.077Z,6.42
2022-10-07T06:39:59.375Z,6.52
2022-10-07T06:42:28.603Z,6.61
2022-10-07T06:44:59.138Z,6.75
2022-10-07T06:47:27.580Z,6.75
2022-10-07T06:49:55.492Z,6.51
2022-10-07T06:52:23.577Z,6.86
2022-10-07T06:54:51.608Z,6.88
2022-10-07T06:57:44.209Z,6.81
2022-10-07T07:00:10.800Z,7.37
2022-10-07T07:02:39.023Z,7.31
2022-10-07T07:05:08.869Z,7.40
2022-10-07T07:07:38.293Z,7.55
2022-10-07T07:10:07.484Z,7.69
2022-10-07T07:12:39.715Z,7.87
2022-10-07T07:15:08.463Z,8.09
2022-10-07T07:17:39.474Z,8.23
2022-10-07T07:20:08.931Z,8.47
2022-10-07T07:22:36.718Z,8.55
2022-10-07T07:25:05.635Z,8.65
2022-10-07T07:27:34.008Z,8.82
2022-10-07T07:30:03.670Z,8.97
2022-10-07T07:32:32.743Z,9.29
2022-10-07T07:35:05.163Z,9.22
2022-10-07T07:37:33.635Z,9.32
2022-10-07T07:40:01.492Z,9.47
2022-10-07T07:42:31.640Z,9.71
2022-10-07T07:45:00.426Z,9.78
2022-10-07T07:47:29.821Z,9.83
2022-10-07T07:49:57.982Z,10.12
2022-10-07T07:52:30.813Z,10.26
2022-10-07T07:55:03.050Z,10.34
2022-10-07T07:57:32.883Z,10.46
2022-10-07T08:00:05.231Z,10.53
2022-10-07T08:02:43.348Z,10.40
2022-10-07T08:05:20.129Z,10.36
2022-10-07T08:07:52.371Z,10.85
2022-10-07T08:10:21.478Z,10.91
2022-10-07T08:12:49.352Z,10.94
2022-10-07T08:15:17.483Z,11.00
2022-10-07T08:17:47.476Z,11.13
2022-10-07T08:20:16.388Z,11.00
2022-10-07T08:22:45.920Z,11.43
2022-10-07T08:25:16.780Z,11.50
2022-10-07T08:27:46.027Z,11.55
2022-10-07T08:30:14.715Z,11.71
2022-10-07T08:32:42.805Z,11.65
2022-10-07T08:35:12.067Z,11.37
2022-10-07T08:37:40.050Z,12.09
2022-10-07T08:40:13.991Z,12.16
2022-10-07T08:42:43.718Z,12.35
2022-10-07T08:45:20.535Z,12.59
2022-10-07T08:47:50.294Z,12.68
2022-10-07T08:50:24.666Z,12.78
2022-10-07T08:52:56.263Z,12.99
2022-10-07T08:55:32.146Z,13.09
2022-10-07T08:58:32.918Z,13.04
2022-10-07T09:01:07.761Z,13.13
2022-10-07T09:03:44.058Z,13.27
2022-10-07T09:06:16.516Z,13.22
2022-10-07T09:08:47.466Z,13.46
2022-10-07T09:11:25.561Z,13.52
2022-10-07T09:13:57.151Z,13.48
2022-10-07T09:16:30.691Z,13.63
2022-10-07T09:19:00.737Z,13.65
2022-10-07T09:21:37.491Z,13.60
2022-10-07T09:24:19.982Z,13.83
2022-10-07T09:26:47.917Z,13.93
2022-10-07T09:29:18.613Z,13.89
2022-10-07T09:31:46.506Z,13.78
2022-10-07T09:34:22.261Z,13.93
2022-10-07T09:37:19.068Z,14.11
2022-10-07T09:39:48.617Z,14.04
2022-10-07T09:42:37.593Z,14.17
2022-10-07T09:45:20.798Z,14.37
2022-10-07T09:47:53.571Z,14.15
2022-10-07T09:50:34.204Z,14.43
2022-10-07T09:53:03.953Z,14.41
2022-10-07T09:55:37.680Z,14.38
2022-10-07T09:58:07.333Z,14.59
2022-10-07T10:00:44.003Z,14.70
2022-10-07T10:03:12.007Z,14.89
2022-10-07T10:05:41.703Z,15.00
2022-10-07T10:08:23.712Z,15.06
2022-10-07T10:10:53.826Z,15.09
2022-10-07T10:13:31.061Z,15.24
2022-10-07T10:16:00.359Z,15.21
2022-10-07T10:18:38.673Z,15.20
2022-10-07T10:21:23.325Z,15.31
2022-10-07T10:23:54.741Z,15.40
2022-10-07T10:26:35.819Z,15.40
2022-10-07T10:29:14.852Z,15.31
2022-10-07T10:32:02.674Z,15.50
2022-10-07T10:34:41.029Z,15.52
2022-10-07T10:37:15.110Z,15.55
2022-10-07T10:39:58.496Z,15.25
2022-10-07T10:42:33.684Z,15.48
2022-10-07T10:45:14.109Z,15.68
2022-10-07T10:47:53.947Z,15.83
2022-10-07T10:50:28.886Z,15.70
2022-10-07T10:53:08.602Z,15.85
2022-10-07T10:56:06.691Z,15.86
2022-10-07T10:58:49.130Z,15.81
2022-10-07T11:01:28.008Z,15.81
2022-10-07T11:04:22.787Z,15.88
2022-10-07T11:07:09.297Z,15.76
2022-10-07T11:09:41.405Z,15.77
2022-10-07T11:12:22.289Z,15.87
2022-10-07T11:14:57.935Z,15.90
2022-10-07T11:17:31.430Z,16.06
2022-10-07T11:20:08.440Z,16.12
2022-10-07T11:22:42.305Z,16.16
2022-10-07T11:25:21.087Z,16.05
2022-10-07T11:27:53.067Z,15.94
2022-10-07T11:30:23.368Z,16.15
2022-10-07T11:32:55.880Z,16.20
2022-10-07T11:35:29.081Z,16.05
2022-10-07T11:38:04.187Z,16.05
2022-10-07T11:40:35.685Z,15.89
2022-10-07T11:43:09.642Z,16.10
2022-10-07T11:45:42.592Z,16.15
2022-10-07T11:48:15.561Z,16.08
2022-10-07T11:50:50.042Z,15.61
2022-10-07T11:53:22.169Z,15.86
2022-10-07T11:55:56.533Z,15.88
2022-10-07T11:58:28.402Z,15.91
2022-10-07T12:01:30.391Z,15.92
2022-10-07T12:04:33.976Z,16.10
2022-10-07T12:07:37.595Z,16.23
2022-10-07T12:10:21.803Z,16.27
2022-10-07T12:12:52.311Z,16.36
2022-10-07T12:15:36.722Z,15.58
2022-10-07T12:18:30.620Z,16.30
2022-10-07T12:21:09.622Z,16.16
2022-10-07T12:23:45.363Z,15.96
2022-10-07T12:26:49.220Z,16.26
2022-10-07T12:29:23.826Z,16.30
2022-10-07T12:31:53.120Z,16.39
2022-10-07T12:34:39.728Z,16.30
2022-10-07T12:37:41.189Z,16.38
2022-10-07T12:40:17.572Z,16.38
2022-10-07T12:42:53.494Z,16.30
2022-10-07T12:45:23.640Z,15.99
2022-10-07T12:47:57.605Z,16.29
2022-10-07T12:50:26.624Z,16.33
2022-10-07T12:52:58.758Z,16.50
2022-10-07T12:55:31.817Z,15.91
2022-10-07T12:58:21.378Z,16.47
2022-10-07T13:01:08.528Z,16.53
2022-10-07T13:04:01.009Z,16.47
2022-10-07T13:06:55.297Z,16.44
2022-10-07T13:10:08.942Z,16.38
2022-10-07T13:12:47.468Z,16.63
2022-10-07T13:15:26.286Z,16.51
2022-10-07T13:17:59.862Z,16.50
2022-10-07T13:20:59.452Z,16.44
2022-10-07T13:23:30.217Z,15.78
2022-10-07T13:26:00.383Z,16.29
2022-10-07T13:28:37.376Z,16.33
2022-10-07T13:31:18.951Z,16.36
2022-10-07T13:33:47.654Z,16.49
2022-10-07T13:36:20.328Z,16.41
2022-10-07T13:38:50.424Z,16.45
2022-10-07T13:41:27.562Z,16.35
2022-10-07T13:43:59.804Z,16.23
2022-10-07T13:46:30.249Z,16.26
2022-10-07T13:48:59.845Z,16.41
2022-10-07T13:51:35.656Z,16.28
2022-10-07T13:54:07.838Z,16.21
2022-10-07T13:56:39.746Z,16.31
2022-10-07T13:59:09.542Z,15.84
2022-10-07T14:01:39.265Z,16.34
2022-10-07T14:04:18.973Z,16.30
2022-10-07T14:06:57.769Z,16.34
2022-10-07T14:09:37.155Z,16.15
2022-10-07T14:12:08.999Z,16.37
2022-10-07T14:14:39.401Z,16.39
2022-10-07T14:17:18.225Z,16.37
2022-10-07T14:19:53.238Z,16.28
2022-10-07T14:22:30.087Z,16.26
2022-10-07T14:25:01.741Z,16.13
2022-10-07T14:28:17.399Z,16.25
2022-10-07T14:31:04.089Z,16.36
2022-10-07T14:34:03.100Z,16.27
2022-10-07T14:36:31.168Z,16.17
2022-10-07T14:39:03.310Z,16.04
2022-10-07T14:41:32.603Z,15.95
2022-10-07T14:44:03.729Z,16.05
2022-10-07T14:46:31.617Z,16.02
2022-10-07T14:48:59.567Z,15.91
2022-10-07T14:51:29.841Z,16.03
2022-10-07T14:53:59.489Z,15.91
2022-10-07T14:56:30.959Z,15.83
2022-10-07T14:58:59.105Z,15.47
2022-10-07T15:01:29.685Z,15.80
2022-10-07T15:03:57.930Z,15.78
2022-10-07T15:06:26.496Z,15.80
2022-10-07T15:08:54.662Z,15.72
2022-10-07T15:11:22.633Z,15.78
2022-10-07T15:13:51.787Z,15.81
2022-10-07T15:16:21.809Z,15.75
2022-10-07T15:18:52.701Z,15.67
2022-10-07T15:21:22.288Z,15.69
2022-10-07T15:23:53.598Z,15.24
2022-10-07T15:26:24.011Z,15.55
2022-10-07T15:28:55.385Z,15.64
2022-10-07T15:31:25.184Z,15.56
2022-10-07T15:33:57.712Z,15.53
2022-10-07T15:36:26.416Z,15.50
2022-10-07T15:38:54.383Z,15.49
2022-10-07T15:41:34.818Z,15.33
2022-10-07T15:44:05.334Z,15.22
2022-10-07T15:46:33.259Z,15.08
2022-10-07T15:49:03.540Z,15.10
2022-10-07T15:51:31.592Z,14.98
2022-10-07T15:53:59.839Z,14.86
2022-10-07T15:56:27.890Z,14.90
2022-10-07T15:58:56.078Z,14.76
2022-10-07T16:01:28.072Z,14.63
2022-10-07T16:03:56.241Z,14.53
2022-10-07T16:06:25.627Z,14.46
2022-10-07T16:08:56.798Z,14.33
2022-10-07T16:11:25.079Z,14.28
2022-10-07T16:13:53.441Z,14.13
2022-10-07T16:16:23.753Z,14.02
2022-10-07T16:18:54.556Z,13.93
2022-10-07T16:21:24.438Z,13.70
2022-10-07T16:23:56.062Z,13.85
2022-10-07T16:26:26.892Z,13.75
2022-10-07T16:29:12.806Z,13.67
2022-10-07T16:31:42.587Z,13.62
2022-10-07T16:34:14.372Z,13.45
2022-10-07T16:36:45.502Z,13.37
2022-10-07T16:39:15.587Z,13.22
2022-10-07T16:41:44.060Z,12.97
2022-10-07T16:44:12.175Z,13.00
2022-10-07T16:46:40.696Z,12.89
2022-10-07T16:49:13.747Z,12.57
2022-10-07T16:51:41.701Z,12.08
2022-10-07T16:54:13.124Z,12.74
2022-10-07T16:56:44.144Z,12.58
2022-10-07T16:59:13.311Z,12.43
2022-10-07T17:01:42.270Z,12.40
2022-10-07T17:04:11.697Z,12.38
2022-10-07T17:06:39.492Z,12.21
2022-10-07T17:09:07.256Z,12.24
2022-10-07T17:11:37.176Z,12.11
2022-10-07T17:14:07.382Z,12.06
2022-10-07T17:16:37.786Z,11.52
2022-10-07T17:19:06.077Z,11.89
2022-10-07T17:21:36.679Z,11.77
2022-10-07T17:24:05.455Z,11.63
2022-10-07T17:26:33.433Z,11.55
2022-10-07T17:29:02.786Z,11.42
2022-10-07T17:31:31.944Z,11.42
2022-10-07T17:34:00.461Z,11.37
2022-10-07T17:36:28.767Z,11.37
2022-10-07T17:38:58.039Z,10.99
2022-10-07T17:41:27.767Z,11.35
2022-10-07T17:43:58.075Z,11.46
2022-10-07T17:46:26.527Z,11.50
2022-10-07T17:48:56.116Z,11.39
2022-10-07T17:51:27.974Z,11.24
2022-10-07T17:53:59.763Z,11.22
2022-10-07T17:56:28.537Z,10.98
2022-10-07T17:58:56.889Z,10.77
2022-10-07T18:01:27.423Z,10.99
2022-10-07T18:03:57.538Z,10.82
2022-10-07T18:06:26.906Z,10.92
2022-10-07T18:08:55.285Z,10.85
2022-10-07T18:11:44.686Z,10.65
2022-10-07T18:14:35.592Z,10.71
2022-10-07T18:17:04.719Z,10.64
2022-10-07T18:19:33.754Z,10.58
2022-10-07T18:22:03.873Z,10.34
2022-10-07T18:24:31.922Z,10.43
2022-10-07T18:27:02.176Z,10.41
2022-10-07T18:29:30.988Z,10.32
2022-10-07T18:32:05.503Z,10.34
2022-10-07T18:34:33.578Z,10.36
2022-10-07T18:37:01.713Z,10.47
2022-10-07T18:39:29.885Z,10.46
2022-10-07T18:41:58.859Z,10.27
2022-10-07T18:44:29.825Z,10.27
2022-10-07T18:46:58.420Z,9.88
2022-10-07T18:49:29.292Z,10.03
2022-10-07T18:51:57.157Z,9.88
2022-10-07T18:54:25.004Z,9.90
2022-10-07T18:56:53.063Z,9.80
2022-10-07T18:59:21.920Z,9.61
2022-10-07T19:01:51.492Z,8.99
2022-10-07T19:04:20.126Z,9.67
2022-10-07T19:06:48.831Z,9.10
2022-10-07T19:09:19.304Z,9.50
2022-10-07T19:11:47.706Z,9.54
2022-10-07T19:14:14.734Z,9.55
2022-10-07T19:16:44.692Z,9.35
2022-10-07T19:19:15.546Z,9.52
2022-10-07T19:21:44.678Z,9.54
2022-10-07T19:24:12.587Z,9.41
2022-10-07T19:26:43.336Z,9.42
2022-10-07T19:29:14.623Z,9.29
2022-10-07T19:31:44.531Z,9.44
2022-10-07T19:34:15.423Z,9.39
2022-10-07T19:36:46.970Z,9.35
2022-10-07T19:39:16.526Z,9.05
2022-10-07T19:41:44.740Z,9.05
2022-10-07T19:44:13.692Z,9.03
2022-10-07T19:46:41.596Z,9.07
2022-10-07T19:49:10.256Z,9.26
2022-10-07T19:51:40.509Z,9.38
2022-10-07T19:54:10.644Z,9.21
2022-10-07T19:56:40.516Z,8.88
2022-10-07T19:59:10.336Z,8.45
2022-10-07T20:01:41.454Z,8.81
2022-10-07T20:04:13.185Z,8.58
2022-10-07T20:06:42.927Z,8.73
2022-10-07T20:09:12.404Z,8.77
2022-10-07T20:11:40.644Z,8.76
2022-10-07T20:14:09.980Z,8.55
2022-10-07T20:16:39.084Z,8.51
2022-10-07T20:19:08.840Z,8.55
2022-10-07T20:21:39.324Z,8.27
2022-10-07T20:24:09.868Z,8.37
2022-10-07T20:26:39.393Z,8.43
2022-10-07T20:29:10.227Z,8.41
2022-10-07T20:31:40.338Z,8.15
2022-10-07T20:34:11.263Z,8.35
2022-10-07T20:36:41.262Z,7.49
2022-10-07T20:39:34.626Z,8.26
2022-10-07T20:42:20.655Z,8.10
2022-10-07T20:44:49.328Z,8.19
2022-10-07T20:47:18.377Z,8.17
2022-10-07T20:49:48.327Z,7.93
2022-10-07T20:52:18.104Z,7.90
2022-10-07T20:54:48.503Z,7.95
2022-10-07T20:57:18.650Z,7.94
2022-10-07T20:59:47.030Z,8.01
2022-10-07T21:02:16.923Z,7.96
2022-10-07T21:04:46.897Z,7.92
2022-10-07T21:07:15.403Z,7.78
2022-10-07T21:09:43.266Z,7.79
2022-10-07T21:12:14.197Z,7.20
2022-10-07T21:14:42.959Z,7.77
2022-10-07T21:17:11.638Z,7.56
2022-10-07T21:19:40.253Z,7.57
2022-10-07T21:22:08.470Z,7.59
2022-10-07T21:24:36.762Z,7.53
2022-10-07T21:27:07.578Z,7.62
2022-10-07T21:29:40.786Z,7.52
2022-10-07T21:32:09.713Z,7.27
2022-10-07T21:34:37.646Z,7.48
2022-10-07T21:37:05.603Z,7.47
2022-10-07T21:39:34.057Z,7.46
2022-10-07T21:42:02.041Z,7.47
2022-10-07T21:44:32.151Z,7.43
2022-10-07T21:47:01.432Z,7.20
2022-10-07T21:49:29.301Z,4.89
2022-10-07T21:51:57.247Z,7.53
2022-10-07T21:54:26.110Z,7.14
2022-10-07T21:56:53.926Z,7.29
2022-10-07T21:59:21.856Z,7.29
2022-10-07T22:01:49.750Z,7.39
2022-10-07T22:04:20.000Z,7.25
2022-10-07T22:07:05.762Z,7.25
2022-10-07T22:09:33.626Z,7.21
